createdAt,value
2023-10-31T00:01:06.363Z,99212.88
2023-10-31T00:03:36.408Z,99220.94
2023-10-31T00:06:09.398Z,99236.63
2023-10-31T00:08:39.252Z,99235.91
2023-10-31T00:11:09.402Z,99252.97
2023-10-31T00:13:39.303Z,99265.03
2023-10-31T00:16:10.114Z,99257.56
2023-10-31T00:18:40.007Z,99274.31
2023-10-31T00:21:12.448Z,99280.13
2023-10-31T00:23:47.616Z,99281.22
2023-10-31T00:26:17.917Z,99293.69
2023-10-31T00:28:47.847Z,99292.91
2023-10-31T00:31:17.762Z,99313.56
2023-10-31T00:33:47.686Z,99315.97
2023-10-31T00:36:20.443Z,99320.38
2023-10-31T00:38:50.524Z,99323.53
2023-10-31T00:41:20.517Z,99329.06
2023-10-31T00:43:50.354Z,99333.38
2023-10-31T00:46:20.816Z,99347.78
2023-10-31T00:48:50.810Z,99343.84
2023-10-31T00:51:23.504Z,99347.31
2023-10-31T00:53:53.366Z,99359.59
2023-10-31T00:56:23.204Z,99361.97
2023-10-31T00:58:53.097Z,99379.75
2023-10-31T01:01:22.931Z,99378.19
2023-10-31T01:03:55.857Z,99386.34
2023-10-31T01:06:28.382Z,99381.63
2023-10-31T01:08:58.309Z,99381.59
2023-10-31T01:11:28.307Z,99390.94
2023-10-31T01:13:58.354Z,99402.09
2023-10-31T01:16:28.227Z,99399.59
2023-10-31T01:18:58.134Z,99404.22
2023-10-31T01:21:30.647Z,99402.28
2023-10-31T01:24:00.589Z,99402.69
2023-10-31T01:26:30.537Z,99415.16
2023-10-31T01:29:00.486Z,99408.88
2023-10-31T01:31:30.812Z,99417.19
2023-10-31T01:34:01.065Z,99414.81
2023-10-31T01:36:33.671Z,99411.69
2023-10-31T01:39:03.541Z,99418.53
2023-10-31T01:41:34.429Z,99425.59
2023-10-31T01:44:04.353Z,99424.00
2023-10-31T01:46:34.260Z,99426.38
2023-10-31T01:49:04.397Z,99428.03
2023-10-31T01:51:37.054Z,99440.50
2023-10-31T01:54:07.784Z,99442.06
2023-10-31T01:56:37.799Z,99443.44
2023-10-31T01:59:09.621Z,99445.00
2023-10-31T02:01:42.454Z,99443.44
2023-10-31T02:04:12.336Z,99455.09
2023-10-31T02:06:46.982Z,99456.25
2023-10-31T02:09:16.905Z,99457.34
2023-10-31T02:11:46.883Z,99445.66
2023-10-31T02:14:16.764Z,99448.38
2023-10-31T02:16:46.679Z,99458.78
2023-10-31T02:19:20.428Z,99444.81
2023-10-31T02:21:55.409Z,99443.22
2023-10-31T02:24:25.226Z,99447.84
2023-10-31T02:26:55.148Z,99454.44
2023-10-31T02:29:25.079Z,99452.41
2023-10-31T02:31:55.873Z,99452.50
2023-10-31T02:34:27.550Z,99451.72
2023-10-31T02:37:00.053Z,99450.84
2023-10-31T02:39:30.070Z,99446.97
2023-10-31T02:41:59.960Z,99445.34
2023-10-31T02:44:29.865Z,99444.06
2023-10-31T02:46:59.946Z,99443.28
2023-10-31T02:49:29.805Z,99447.56
2023-10-31T02:52:02.300Z,99454.47
2023-10-31T02:54:32.244Z,99452.16
2023-10-31T02:57:02.515Z,99445.41
2023-10-31T02:59:32.400Z,99452.94
2023-10-31T03:02:02.561Z,99453.31
2023-10-31T03:04:32.425Z,99449.88
2023-10-31T03:07:04.958Z,99453.72
2023-10-31T03:09:34.773Z,99456.09
2023-10-31T03:12:04.598Z,99460.03
2023-10-31T03:14:34.890Z,99455.00
2023-10-31T03:17:04.784Z,99455.47
2023-10-31T03:19:34.746Z,99459.66
2023-10-31T03:22:07.535Z,99462.25
2023-10-31T03:24:37.538Z,99463.03
2023-10-31T03:27:07.428Z,99463.78
2023-10-31T03:29:37.333Z,99467.66
2023-10-31T03:32:08.267Z,99460.19
2023-10-31T03:34:38.749Z,99461.06
2023-10-31T03:37:11.492Z,99462.22
2023-10-31T03:39:41.369Z,99464.47
2023-10-31T03:42:11.392Z,99465.34
2023-10-31T03:44:41.310Z,99471.94
2023-10-31T03:47:11.293Z,99464.63
2023-10-31T03:49:42.050Z,99477.94
2023-10-31T03:52:14.539Z,99475.59
2023-10-31T03:54:44.378Z,99479.09
2023-10-31T03:57:14.266Z,99486.53
2023-10-31T03:59:44.137Z,99484.25
2023-10-31T04:02:14.014Z,99493.56
2023-10-31T04:04:43.951Z,99488.97
2023-10-31T04:07:16.416Z,99494.00
2023-10-31T04:09:46.318Z,99493.84
2023-10-31T04:12:16.522Z,99496.84
2023-10-31T04:14:46.395Z,99498.88
2023-10-31T04:17:16.403Z,99502.03
2023-10-31T04:19:46.292Z,99504.38
2023-10-31T04:22:18.828Z,99503.19
2023-10-31T04:24:48.650Z,99503.88
2023-10-31T04:27:18.518Z,99502.66
2023-10-31T04:29:50.513Z,99509.63
2023-10-31T04:32:20.448Z,99508.03
2023-10-31T04:34:50.359Z,99514.56
2023-10-31T04:37:22.871Z,99518.91
2023-10-31T04:39:52.737Z,99524.34
2023-10-31T04:42:24.016Z,99525.19
2023-10-31T04:44:53.877Z,99531.69
2023-10-31T04:47:24.115Z,99535.97
2023-10-31T04:49:55.500Z,99537.53
2023-10-31T04:52:27.980Z,99539.84
2023-10-31T04:54:58.031Z,99538.28
2023-10-31T04:57:28.047Z,99543.34
2023-10-31T04:59:59.719Z,99543.00
2023-10-31T05:02:30.041Z,99551.56
2023-10-31T05:05:00.179Z,99560.91
2023-10-31T05:07:34.768Z,99559.75
2023-10-31T05:10:04.749Z,99556.97
2023-10-31T05:12:34.588Z,99560.47
2023-10-31T05:15:04.455Z,99557.69
2023-10-31T05:17:34.362Z,99566.28
2023-10-31T05:20:04.537Z,99569.78
2023-10-31T05:22:37.199Z,99568.47
2023-10-31T05:25:07.761Z,99575.66
2023-10-31T05:27:37.642Z,99583.41
2023-10-31T05:30:08.605Z,99588.13
2023-10-31T05:32:38.489Z,99588.91
2023-10-31T05:35:10.317Z,99589.69
2023-10-31T05:37:42.885Z,99596.63
2023-10-31T05:40:14.519Z,99603.59
2023-10-31T05:42:44.514Z,99594.97
2023-10-31T05:45:14.555Z,99606.69
2023-10-31T05:47:44.380Z,99599.72
2023-10-31T05:50:14.443Z,99612.97
2023-10-31T05:52:47.092Z,99611.41
2023-10-31T05:55:17.365Z,99610.25
2023-10-31T05:57:47.354Z,99616.06
2023-10-31T06:00:18.059Z,99622.66
2023-10-31T06:02:47.956Z,99619.94
2023-10-31T06:05:18.067Z,99621.06
2023-10-31T06:07:50.620Z,99624.22
2023-10-31T06:10:22.807Z,99634.31
2023-10-31T06:12:52.786Z,99644.44
2023-10-31T06:15:22.742Z,99635.91
2023-10-31T06:17:52.802Z,99647.16
2023-10-31T06:20:23.618Z,99649.88
2023-10-31T06:22:58.744Z,99654.16
2023-10-31T06:25:28.702Z,99662.06
2023-10-31T06:27:58.586Z,99665.22
2023-10-31T06:30:29.341Z,99674.59
2023-10-31T06:32:59.749Z,99679.97
2023-10-31T06:35:29.673Z,99678.41
2023-10-31T06:38:02.588Z,99673.81
2023-10-31T06:40:34.298Z,99684.00
2023-10-31T06:43:05.496Z,99683.22
2023-10-31T06:45:35.378Z,99688.56
2023-10-31T06:48:06.712Z,99697.63
2023-10-31T06:50:36.595Z,99693.03
2023-10-31T06:53:09.103Z,99697.31
2023-10-31T06:55:38.988Z,99697.78
2023-10-31T06:58:08.853Z,99700.66
2023-10-31T07:00:38.889Z,99695.22
2023-10-31T07:03:10.718Z,99704.94
2023-10-31T07:05:41.657Z,99709.25
2023-10-31T07:08:14.316Z,99711.63
2023-10-31T07:10:44.284Z,99707.84
2023-10-31T07:13:16.283Z,99716.44
2023-10-31T07:15:47.962Z,99710.56
2023-10-31T07:18:17.897Z,99720.16
2023-10-31T07:20:47.774Z,99716.91
2023-10-31T07:23:20.314Z,99725.44
2023-10-31T07:25:50.317Z,99731.56
2023-10-31T07:28:20.600Z,99732.72
2023-10-31T07:30:51.714Z,99730.78
2023-10-31T07:33:21.661Z,99731.13
2023-10-31T07:35:51.593Z,99742.75
2023-10-31T07:38:24.253Z,99747.72
2023-10-31T07:40:54.284Z,99750.03
2023-10-31T07:43:24.202Z,99750.81
2023-10-31T07:45:54.209Z,99746.53
2023-10-31T07:48:26.344Z,99755.72
2023-10-31T07:50:56.231Z,99760.06
2023-10-31T07:53:28.664Z,99756.88
2023-10-31T07:55:58.532Z,99758.44
2023-10-31T07:58:28.465Z,99760.06
2023-10-31T08:00:58.403Z,99760.84
2023-10-31T08:03:28.455Z,99763.09
2023-10-31T08:05:58.450Z,99757.75
2023-10-31T08:08:30.988Z,99767.94
2023-10-31T08:11:03.572Z,99760.22
2023-10-31T08:13:34.357Z,99764.06
2023-10-31T08:16:04.241Z,99772.25
2023-10-31T08:18:34.054Z,99771.81
2023-10-31T08:21:03.973Z,99777.34
2023-10-31T08:23:37.186Z,99763.38
2023-10-31T08:26:07.705Z,99773.56
2023-10-31T08:28:37.578Z,99770.56
2023-10-31T08:31:07.989Z,99767.41
2023-10-31T08:33:37.889Z,99774.88
2023-10-31T08:36:09.035Z,99773.72
2023-10-31T08:38:41.541Z,99776.53
2023-10-31T08:41:11.567Z,99771.69
2023-10-31T08:43:41.536Z,99772.22
2023-10-31T08:46:11.651Z,99776.97
2023-10-31T08:48:41.558Z,99778.53
2023-10-31T08:51:11.515Z,99790.13
2023-10-31T08:53:46.033Z,99799.81
2023-10-31T08:56:16.024Z,99792.84
2023-10-31T08:58:45.908Z,99804.66
2023-10-31T09:01:16.098Z,99810.19
2023-10-31T09:03:46.066Z,99809.81
2023-10-31T09:06:16.094Z,99818.00
2023-10-31T09:08:48.601Z,99818.16
2023-10-31T09:11:18.477Z,99809.97
2023-10-31T09:13:48.443Z,99831.94
2023-10-31T09:16:18.391Z,99824.66
2023-10-31T09:18:48.660Z,99834.75
2023-10-31T09:21:18.754Z,99845.81
2023-10-31T09:23:51.243Z,99846.59
2023-10-31T09:26:21.453Z,99850.19
2023-10-31T09:28:51.784Z,99852.84
2023-10-31T09:31:22.035Z,99864.28
2023-10-31T09:33:52.078Z,99869.53
2023-10-31T09:36:23.916Z,99866.88
2023-10-31T09:38:56.393Z,99872.94
2023-10-31T09:41:26.237Z,99877.03
2023-10-31T09:43:57.410Z,99881.41
2023-10-31T09:46:27.438Z,99882.56
2023-10-31T09:48:57.403Z,99890.75
2023-10-31T09:51:27.482Z,99896.34
2023-10-31T09:54:03.439Z,99894.47
2023-10-31T09:56:35.994Z,99908.84
2023-10-31T09:59:07.247Z,99908.38
2023-10-31T10:01:39.294Z,99914.56
2023-10-31T10:04:09.794Z,99916.16
2023-10-31T10:06:44.861Z,99928.56
2023-10-31T10:09:17.454Z,99933.13
2023-10-31T10:11:47.357Z,99934.66
2023-10-31T10:14:17.242Z,99934.13
2023-10-31T10:16:47.233Z,99950.41
2023-10-31T10:19:23.218Z,99948.53
2023-10-31T10:21:54.232Z,99961.91
2023-10-31T10:24:28.188Z,99956.91
2023-10-31T10:26:58.014Z,99961.91
2023-10-31T10:29:28.167Z,99961.19
2023-10-31T10:31:58.534Z,99975.72
2023-10-31T10:34:28.443Z,99968.38
2023-10-31T10:36:59.616Z,99974.72
2023-10-31T10:39:37.682Z,99976.66
2023-10-31T10:42:13.555Z,99971.56
2023-10-31T10:44:50.304Z,99979.03
2023-10-31T10:47:22.457Z,99970.16
2023-10-31T10:49:56.747Z,99982.34
2023-10-31T10:52:33.290Z,99980.50
2023-10-31T10:55:08.741Z,99978.03
2023-10-31T10:57:43.680Z,99972.75
2023-10-31T11:00:18.097Z,99980.06
2023-10-31T11:02:49.981Z,99967.22
2023-10-31T11:05:20.955Z,99976.88
2023-10-31T11:07:52.689Z,99989.84
2023-10-31T11:10:25.740Z,99982.06
2023-10-31T11:12:56.378Z,99988.25
2023-10-31T11:15:27.951Z,99989.22
2023-10-31T11:17:59.976Z,99983.13
2023-10-31T11:20:30.668Z,99986.00
2023-10-31T11:23:06.080Z,99980.34
2023-10-31T11:25:46.789Z,99986.94
2023-10-31T11:28:19.141Z,99984.03
2023-10-31T11:30:52.176Z,99986.91
2023-10-31T11:33:24.643Z,99985.47
2023-10-31T11:35:55.381Z,99988.75
2023-10-31T11:38:36.696Z,99993.66
2023-10-31T11:41:10.517Z,99985.38
2023-10-31T11:44:01.562Z,99989.25
2023-10-31T11:46:32.701Z,99994.25
2023-10-31T11:49:03.400Z,99982.66
2023-10-31T11:51:33.219Z,99985.09
2023-10-31T11:54:08.789Z,99991.41
2023-10-31T11:56:41.278Z,99992.13
2023-10-31T11:59:11.382Z,99990.56
2023-10-31T12:01:49.217Z,99994.44
2023-10-31T12:04:28.147Z,99993.72
2023-10-31T12:07:05.259Z,99995.28
2023-10-31T12:09:36.261Z,99997.78
2023-10-31T12:12:09.759Z,100004.03
2023-10-31T12:14:41.262Z,100004.09
2023-10-31T12:17:11.647Z,100016.19
2023-10-31T12:19:41.640Z,100014.25
2023-10-31T12:22:17.875Z,100015.03
2023-10-31T12:24:47.932Z,100020.22
2023-10-31T12:27:20.402Z,100024.44
2023-10-31T12:29:50.284Z,100022.94
2023-10-31T12:32:21.205Z,100021.34
2023-10-31T12:34:51.274Z,100022.09
2023-10-31T12:37:21.472Z,100025.47
2023-10-31T12:39:52.254Z,100018.44
2023-10-31T12:42:30.421Z,100026.25
2023-10-31T12:45:00.557Z,100029.00
2023-10-31T12:47:30.715Z,100029.00
2023-10-31T12:50:11.701Z,100020.63
2023-10-31T12:52:52.473Z,100021.41
2023-10-31T12:55:24.214Z,100030.91
2023-10-31T12:57:57.421Z,100017.16
2023-10-31T13:00:35.000Z,100024.00
2023-10-31T13:03:06.201Z,100028.75
2023-10-31T13:05:37.588Z,100024.38
2023-10-31T13:08:08.326Z,100027.44
2023-10-31T13:10:38.216Z,100031.75
2023-10-31T13:13:10.685Z,100029.84
2023-10-31T13:15:40.542Z,100034.94
2023-10-31T13:18:12.824Z,100029.97
2023-10-31T13:20:42.877Z,100020.97
2023-10-31T13:23:13.531Z,100029.53
2023-10-31T13:25:43.671Z,100032.72
2023-10-31T13:28:17.210Z,100021.84
2023-10-31T13:30:48.456Z,100036.84
2023-10-31T13:33:19.256Z,100028.34
2023-10-31T13:35:49.168Z,100025.31
2023-10-31T13:38:19.973Z,100026.03
2023-10-31T13:40:50.345Z,100024.66
2023-10-31T13:43:22.956Z,100030.78
2023-10-31T13:45:52.779Z,100029.31
2023-10-31T13:48:22.681Z,100024.56
2023-10-31T13:50:52.610Z,100028.03
2023-10-31T13:53:23.422Z,100031.94
2023-10-31T13:55:53.340Z,100028.34
2023-10-31T13:58:26.051Z,100034.53
2023-10-31T14:00:55.960Z,100032.22
2023-10-31T14:03:25.974Z,100034.59
2023-10-31T14:05:56.855Z,100036.53
2023-10-31T14:08:26.829Z,100044.03
2023-10-31T14:10:58.175Z,100044.03
2023-10-31T14:13:30.755Z,100048.81
2023-10-31T14:16:00.728Z,100050.03
2023-10-31T14:18:30.933Z,100054.44
2023-10-31T14:21:00.939Z,100055.25
2023-10-31T14:23:30.778Z,100057.53
2023-10-31T14:26:00.713Z,100059.13
2023-10-31T14:28:33.161Z,100059.81
2023-10-31T14:31:03.208Z,100058.25
2023-10-31T14:33:33.637Z,100063.72
2023-10-31T14:36:03.926Z,100067.69
2023-10-31T14:38:33.790Z,100063.72
2023-10-31T14:41:05.384Z,100075.38
2023-10-31T14:43:38.848Z,100079.56
2023-10-31T14:46:09.534Z,100078.41
2023-10-31T14:48:39.417Z,100075.69
2023-10-31T14:51:09.696Z,100078.34
2023-10-31T14:53:39.590Z,100080.56
2023-10-31T14:56:10.485Z,100077.84
2023-10-31T14:58:43.848Z,100082.75
2023-10-31T15:01:14.716Z,100083.50
2023-10-31T15:03:44.805Z,100086.63
2023-10-31T15:06:16.418Z,100085.06
2023-10-31T15:08:46.280Z,100089.25
2023-10-31T15:11:17.075Z,100092.25
2023-10-31T15:13:49.756Z,100087.75
2023-10-31T15:16:19.923Z,100093.22
2023-10-31T15:18:49.900Z,100101.75
2023-10-31T15:21:19.880Z,100095.06
2023-10-31T15:23:52.235Z,100097.00
2023-10-31T15:26:26.346Z,100101.59
2023-10-31T15:28:59.017Z,100100.75
2023-10-31T15:31:28.926Z,100094.50
2023-10-31T15:33:59.052Z,100103.06
2023-10-31T15:36:28.920Z,100101.13
2023-10-31T15:38:58.830Z,100109.31
2023-10-31T15:41:28.714Z,100118.63
2023-10-31T15:44:01.623Z,100117.84
2023-10-31T15:46:32.898Z,100117.78
2023-10-31T15:49:05.117Z,100119.34
2023-10-31T15:51:35.547Z,100114.69
2023-10-31T15:54:05.228Z,100121.72
2023-10-31T15:56:36.083Z,100123.66
2023-10-31T15:59:08.775Z,100109.22
2023-10-31T16:01:38.922Z,100125.59
2023-10-31T16:04:09.228Z,100122.44
2023-10-31T16:06:39.250Z,100123.16
2023-10-31T16:09:09.790Z,100114.53
2023-10-31T16:11:40.940Z,100122.31
2023-10-31T16:14:14.111Z,100124.59
2023-10-31T16:16:45.616Z,100128.81
2023-10-31T16:19:15.451Z,100145.56
2023-10-31T16:21:45.351Z,100155.44
2023-10-31T16:24:15.430Z,100160.06
2023-10-31T16:26:45.467Z,100152.91
2023-10-31T16:29:18.236Z,100167.66
2023-10-31T16:31:49.340Z,100178.78
2023-10-31T16:34:20.513Z,100173.84
2023-10-31T16:36:50.447Z,100180.28
2023-10-31T16:39:20.677Z,100173.97
2023-10-31T16:41:50.592Z,100169.19
2023-10-31T16:44:23.143Z,100173.06
2023-10-31T16:46:53.257Z,100172.63
2023-10-31T16:49:23.248Z,100171.56
2023-10-31T16:51:55.747Z,100167.00
2023-10-31T16:54:25.721Z,100171.84
2023-10-31T16:56:55.839Z,100160.66
2023-10-31T16:59:28.655Z,100165.75
2023-10-31T17:01:58.559Z,100170.00
2023-10-31T17:04:28.632Z,100170.44
2023-10-31T17:06:58.549Z,100166.56
2023-10-31T17:09:28.378Z,100167.69
2023-10-31T17:11:58.408Z,100171.84
2023-10-31T17:14:30.971Z,100175.34
2023-10-31T17:17:03.809Z,100180.91
2023-10-31T17:19:33.874Z,100182.81
2023-10-31T17:22:04.318Z,100178.19
2023-10-31T17:24:34.169Z,100177.31
2023-10-31T17:27:04.196Z,100192.09
2023-10-31T17:29:36.797Z,100195.97
2023-10-31T17:32:13.854Z,100198.94
2023-10-31T17:34:50.492Z,100196.28
2023-10-31T17:37:20.458Z,100203.25
2023-10-31T17:39:50.341Z,100199.56
2023-10-31T17:42:20.804Z,100206.16
2023-10-31T17:44:54.353Z,100207.63
2023-10-31T17:47:24.365Z,100222.53
2023-10-31T17:49:54.293Z,100227.78
2023-10-31T17:52:26.776Z,100233.91
2023-10-31T17:54:57.178Z,100233.25
2023-10-31T17:57:27.405Z,100233.25
2023-10-31T18:00:02.050Z,100239.38
2023-10-31T18:02:32.068Z,100240.97
2023-10-31T18:05:03.733Z,100248.69
2023-10-31T18:07:33.661Z,100258.81
2023-10-31T18:10:03.693Z,100252.56
2023-10-31T18:12:33.553Z,100250.19
2023-10-31T18:15:06.366Z,100251.34
2023-10-31T18:17:36.336Z,100244.63
2023-10-31T18:20:06.368Z,100231.34
2023-10-31T18:22:36.920Z,100241.91
2023-10-31T18:25:07.139Z,100250.09
2023-10-31T18:27:37.167Z,100241.03
2023-10-31T18:30:14.879Z,100245.34
2023-10-31T18:32:45.331Z,100248.41
2023-10-31T18:35:15.335Z,100250.78
2023-10-31T18:37:45.170Z,100253.53
2023-10-31T18:40:17.007Z,100260.78
2023-10-31T18:42:46.842Z,100244.78
2023-10-31T18:45:19.473Z,100245.16
2023-10-31T18:47:49.474Z,100249.00
2023-10-31T18:50:20.018Z,100251.38
2023-10-31T18:52:50.036Z,100247.31
2023-10-31T18:55:20.337Z,100241.06
2023-10-31T18:57:50.264Z,100248.81
2023-10-31T19:00:23.330Z,100243.38
2023-10-31T19:02:53.369Z,100246.69
2023-10-31T19:05:24.776Z,100240.88
2023-10-31T19:07:54.693Z,100243.84
2023-10-31T19:10:25.741Z,100244.53
2023-10-31T19:12:56.797Z,100240.66
2023-10-31T19:15:30.051Z,100233.63
2023-10-31T19:18:00.060Z,100231.34
2023-10-31T19:20:29.999Z,100226.69
2023-10-31T19:23:01.783Z,100231.34
2023-10-31T19:25:32.007Z,100229.75
2023-10-31T19:28:02.214Z,100225.91
2023-10-31T19:30:34.868Z,100224.31
2023-10-31T19:33:04.763Z,100225.03
2023-10-31T19:35:36.607Z,100223.59
2023-10-31T19:38:06.605Z,100224.50
2023-10-31T19:40:36.653Z,100226.53
2023-10-31T19:43:06.530Z,100231.75
2023-10-31T19:45:41.948Z,100224.00
2023-10-31T19:48:12.681Z,100227.09
2023-10-31T19:50:43.677Z,100224.72
2023-10-31T19:53:13.697Z,100219.97
2023-10-31T19:55:43.526Z,100217.47
2023-10-31T19:58:13.857Z,100222.94
2023-10-31T20:00:46.337Z,100225.31
2023-10-31T20:03:16.603Z,100222.34
2023-10-31T20:05:48.547Z,100225.75
2023-10-31T20:08:18.683Z,100227.31
2023-10-31T20:10:48.628Z,100222.69
2023-10-31T20:13:18.622Z,100219.97
2023-10-31T20:15:53.351Z,100222.94
2023-10-31T20:18:23.408Z,100228.19
2023-10-31T20:20:53.439Z,100232.28
2023-10-31T20:23:23.624Z,100232.72
2023-10-31T20:25:53.974Z,100222.97
2023-10-31T20:28:24.032Z,100231.50
2023-10-31T20:30:56.597Z,100226.28
2023-10-31T20:33:26.509Z,100237.97
2023-10-31T20:35:58.099Z,100240.25
2023-10-31T20:38:28.073Z,100238.91
2023-10-31T20:40:57.981Z,100241.63
2023-10-31T20:43:27.964Z,100240.03
2023-10-31T20:46:00.551Z,100245.06
2023-10-31T20:48:30.681Z,100240.50
2023-10-31T20:51:00.755Z,100236.19
2023-10-31T20:53:32.548Z,100233.81
2023-10-31T20:56:04.292Z,100232.09
2023-10-31T20:58:34.149Z,100239.13
2023-10-31T21:01:06.773Z,100239.94
2023-10-31T21:03:36.766Z,100243.00
2023-10-31T21:06:08.091Z,100236.41
2023-10-31T21:08:38.037Z,100230.53
2023-10-31T21:11:09.310Z,100238.69
2023-10-31T21:13:39.536Z,100238.34
2023-10-31T21:16:12.986Z,100236.09
2023-10-31T21:18:42.858Z,100222.13
2023-10-31T21:21:12.855Z,100235.75
2023-10-31T21:23:42.778Z,100229.84
2023-10-31T21:26:12.629Z,100229.84
2023-10-31T21:28:42.959Z,100234.81
2023-10-31T21:31:15.597Z,100235.97
2023-10-31T21:33:45.840Z,100232.81
2023-10-31T21:36:15.696Z,100238.25
2023-10-31T21:38:45.676Z,100232.81
2023-10-31T21:41:15.785Z,100243.56
2023-10-31T21:43:45.672Z,100240.53
2023-10-31T21:46:18.183Z,100242.78
2023-10-31T21:48:48.617Z,100235.72
2023-10-31T21:51:18.567Z,100239.59
2023-10-31T21:53:48.376Z,100236.88
2023-10-31T21:56:18.349Z,100239.59
2023-10-31T21:58:48.231Z,100241.19
2023-10-31T22:01:21.195Z,100246.63
2023-10-31T22:03:51.332Z,100246.63
2023-10-31T22:06:21.606Z,100241.19
2023-10-31T22:08:51.558Z,100252.06
2023-10-31T22:11:21.422Z,100239.59
2023-10-31T22:13:51.317Z,100244.38
2023-10-31T22:16:23.774Z,100244.50
2023-10-31T22:18:53.696Z,100245.38
2023-10-31T22:21:23.608Z,100241.19
2023-10-31T22:23:53.592Z,100238.81
2023-10-31T22:26:24.156Z,100239.13
2023-10-31T22:28:56.777Z,100236.88
2023-10-31T22:31:29.331Z,100230.28
2023-10-31T22:33:59.180Z,100215.88
2023-10-31T22:36:29.028Z,100221.69
2023-10-31T22:38:58.930Z,100226.66
2023-10-31T22:41:28.929Z,100220.06
2023-10-31T22:43:58.863Z,100231.44
2023-10-31T22:46:31.385Z,100227.56
2023-10-31T22:49:01.255Z,100228.44
2023-10-31T22:51:31.103Z,100224.59
2023-10-31T22:54:00.988Z,100235.94
2023-10-31T22:56:31.852Z,100238.69
2023-10-31T22:59:01.722Z,100229.44
2023-10-31T23:01:35.219Z,100232.63
2023-10-31T23:04:06.252Z,100231.38
2023-10-31T23:06:36.586Z,100227.06
2023-10-31T23:09:11.809Z,100234.81
2023-10-31T23:11:46.517Z,100229.34
2023-10-31T23:14:16.735Z,100225.50
2023-10-31T23:16:49.294Z,100226.63
2023-10-31T23:19:19.235Z,100233.22
2023-10-31T23:21:49.159Z,100227.06
2023-10-31T23:24:19.231Z,100223.13
2023-10-31T23:26:49.195Z,100220.28
2023-10-31T23:29:19.068Z,100224.50
2023-10-31T23:31:51.650Z,100221.31
2023-10-31T23:34:21.565Z,100212.00
2023-10-31T23:36:51.443Z,100212.81
2023-10-31T23:39:21.590Z,100210.44
2023-10-31T23:41:51.454Z,100204.41
2023-10-31T23:44:21.365Z,100213.38
2023-10-31T23:46:54.010Z,100215.31
2023-10-31T23:49:23.927Z,100208.38
2023-10-31T23:51:55.577Z,100222.34
2023-10-31T23:54:25.536Z,100208.72
2023-10-31T23:56:55.409Z,100206.00
2023-10-31T23:59:25.271Z,100214.16
